Create Tblcommutelog Verified Points Advance Search
| # | Trip ID | Id Commuter | Trip Date | Trip Num | Current Lat | Current Lng | Delta Distance | Current Time | Activity | Activity Confidence | Current Speed | |
|---|---|---|---|---|---|---|---|---|---|---|---|---|
| 73741 | 260225_765397_16507519_0639 | 765397 | (not set) | (not set) | 39.272729110273 | -76.613953525226 | 0 | 2026-02-25 06:40:03 | unknown | 100 | 0.013411177769632 | |
| 73742 | 260225_789748_16501607_0548 | 789748 | (not set) | (not set) | 38.914397552314 | -77.024493376398 | 40.0021 | 2026-02-25 06:40:10 | in_vehicle | 100 | -0.44703925898772 | |
| 73743 | 260225_781336_16450333_0639 | 781336 | (not set) | (not set) | 38.973857379146 | -77.449339174483 | 0.9557 | 2026-02-25 06:40:18 | in_vehicle | 100 | 11.904655466843 | |
| 73744 | 260225_788116_16505268_0631 | 788116 | (not set) | (not set) | 38.997391962727 | -77.434430179225 | 5.4619 | 2026-02-25 06:40:24 | in_vehicle | 100 | 11.198333437642 | |
| 73745 | 260225_739499_6441660_0633 | 739499 | (not set) | (not set) | 38.902468695877 | -77.024031890663 | 0.3442 | 2026-02-25 06:40:30 | on_foot | 100 | -0.44703925898772 | |
| 73746 | 260225_789839_16660114_0555 | 789839 | (not set) | (not set) | 38.866810124506 | -77.064399581445 | 39.6392 | 2026-02-25 06:40:39 | in_vehicle | 100 | 11.430793852316 | |
| 73747 | 260225_788077_16505268_0622 | 788077 | (not set) | (not set) | 38.8678034973 | -77.220239223198 | 14.3126 | 2026-02-25 06:40:48 | in_vehicle | 100 | 15.449676790616 | |
| 73748 | 260225_784692_16513841_0622 | 784692 | (not set) | (not set) | 38.864626097189 | -77.220208760803 | 14.5334 | 2026-02-25 06:40:58 | in_vehicle | 100 | 15.735781916368 | |
| 73749 | 260225_780343_6428227_0621 | 780343 | (not set) | (not set) | 39.232712154181 | -77.285599611596 | 7.3728 | 2026-02-25 06:41:04 | in_vehicle | 100 | 10.272962171538 | |
| 73750 | 260225_113832_16457490_0634 | 113832 | (not set) | (not set) | 39.059323031675 | -77.117346335166 | 4.7685 | 2026-02-25 06:41:13 | in_vehicle | 100 | 5.5254052410883 | |
| 73751 | 260225_790397_16483285_0632 | 790397 | (not set) | (not set) | 38.337106076696 | -77.448730142661 | 3.0795 | 2026-02-25 06:41:24 | in_vehicle | 100 | 11.587257592962 | |
| 73752 | 260225_781315_16512165_0641 | 781315 | (not set) | (not set) | 38.944480858906 | -77.063507023719 | 0 | 2026-02-25 06:41:28 | unknown | 100 | -0.44703925898772 | |
| 73753 | 260225_784692_16513841_0622 | 784692 | (not set) | (not set) | 38.852976674161 | -77.220185153485 | 15.3371 | 2026-02-25 06:41:34 | in_vehicle | 100 | 15.047341457527 | |
| 73754 | 260225_788475_16428771_0640 | 788475 | (not set) | (not set) | 38.852243294029 | -76.955936534242 | 0.1648 | 2026-02-25 06:41:42 | in_vehicle | 100 | 0.13411177769632 | |
| 73755 | 260225_739499_6441660_0633 | 739499 | (not set) | (not set) | 38.902020499113 | -77.023841927119 | 0.4408 | 2026-02-25 06:41:50 | on_foot | 100 | 0.6884404588411 | |
| 73756 | 260225_788220_16489920_0627 | 788220 | (not set) | (not set) | 38.8632621738 | -77.338533495115 | 14.9377 | 2026-02-25 06:42:00 | unknown | 100 | 15.65531484975 | |
| 73757 | 260225_789579_16464305_0630 | 789579 | (not set) | (not set) | 38.879340336443 | -77.13650969626 | 7.4125 | 2026-02-25 06:42:00 | in_vehicle | 100 | 10.608241615779 | |
| 73758 | 260225_785777_16506513_0630 | 785777 | (not set) | (not set) | 39.291849595002 | -76.554658016218 | 2.0487 | 2026-02-25 06:42:12 | in_vehicle | 100 | 6.8799341958211 | |
| 73759 | 260225_791179_6424413_0639 | 791179 | (not set) | (not set) | 38.867954511783 | -77.056580396698 | 1.7272 | 2026-02-25 06:42:22 | in_vehicle | 100 | 0.63479574776257 | |
| 73760 | 260225_787968_16505268_0621 | 787968 | (not set) | (not set) | 38.8365425 | -77.218417583333 | 16.365 | 2026-02-25 06:42:28 | in_vehicle | 100 | 15.016048709398 |